createdAt,value
2019-03-20T00:00:44.347Z,1.30
2019-03-20T00:03:13.334Z,1.30
2019-03-20T00:05:42.566Z,1.20
2019-03-20T00:08:11.522Z,1.10
2019-03-20T00:10:40.206Z,1.00
2019-03-20T00:13:09.230Z,1.00
2019-03-20T00:15:37.871Z,0.90
2019-03-20T00:18:06.870Z,0.90
2019-03-20T00:20:35.971Z,0.90
2019-03-20T00:23:04.724Z,0.90
2019-03-20T00:25:33.435Z,0.90
2019-03-20T00:28:02.341Z,1.00
2019-03-20T00:30:31.140Z,1.00
2019-03-20T00:32:59.886Z,1.00
2019-03-20T00:35:28.535Z,1.00
2019-03-20T00:37:57.199Z,1.00
2019-03-20T00:40:25.841Z,1.00
2019-03-20T00:42:54.515Z,1.00
2019-03-20T00:45:23.559Z,1.10
2019-03-20T00:47:52.211Z,1.20
2019-03-20T00:50:21.038Z,1.10
2019-03-20T00:52:49.669Z,1.10
2019-03-20T00:55:18.898Z,0.90
2019-03-20T00:57:48.106Z,0.90
2019-03-20T01:00:17.915Z,0.90
2019-03-20T01:02:47.230Z,0.80
2019-03-20T01:05:16.443Z,0.70
2019-03-20T01:07:45.578Z,0.60
2019-03-20T01:10:16.931Z,0.60
2019-03-20T01:12:45.636Z,0.60
2019-03-20T01:15:15.034Z,0.60
2019-03-20T01:17:44.251Z,0.50
2019-03-20T01:20:14.705Z,0.50
2019-03-20T01:22:43.604Z,0.50
2019-03-20T01:25:12.579Z,0.50
2019-03-20T01:27:41.466Z,0.40
2019-03-20T01:30:30.487Z,0.30
2019-03-20T01:33:00.754Z,0.40
2019-03-20T01:35:29.508Z,0.30
2019-03-20T01:37:58.265Z,0.30
2019-03-20T01:40:26.941Z,0.30
2019-03-20T01:42:55.596Z,0.20
2019-03-20T01:45:24.343Z,0.10
2019-03-20T01:47:53.034Z,0.10
2019-03-20T01:50:21.803Z,0.10
2019-03-20T01:52:50.753Z,0.00
2019-03-20T01:55:19.407Z,0.00
2019-03-20T01:57:48.195Z,0.00
2019-03-20T02:00:17.227Z,0.00
2019-03-20T02:02:45.864Z,0.00
2019-03-20T02:05:14.695Z,-0.10
2019-03-20T02:07:43.696Z,-0.10
2019-03-20T02:10:12.677Z,-0.10
2019-03-20T02:12:41.347Z,-0.10
2019-03-20T02:15:12.177Z,-0.20
2019-03-20T02:17:40.899Z,-0.20
2019-03-20T02:20:11.844Z,-0.20
2019-03-20T02:22:40.819Z,-0.20
2019-03-20T02:25:10.427Z,-0.30
2019-03-20T02:27:39.658Z,-0.30
2019-03-20T02:30:11.163Z,-0.30
2019-03-20T02:32:40.109Z,-0.40
2019-03-20T02:35:09.186Z,-0.30
2019-03-20T02:37:37.866Z,-0.30
2019-03-20T02:40:07.265Z,-0.30
2019-03-20T02:42:36.178Z,-0.30
2019-03-20T02:45:05.954Z,-0.20
2019-03-20T02:47:34.594Z,-0.20
2019-03-20T02:50:03.298Z,-0.30
2019-03-20T02:52:31.960Z,-0.40
2019-03-20T02:55:00.602Z,-0.40
2019-03-20T02:57:29.283Z,-0.40
2019-03-20T02:59:57.985Z,-0.40
2019-03-20T03:02:26.671Z,-0.40
2019-03-20T03:04:55.371Z,-0.40
2019-03-20T03:07:24.368Z,-0.50
2019-03-20T03:09:53.359Z,-0.50
2019-03-20T03:12:22.051Z,-0.50
2019-03-20T03:14:51.001Z,-0.50
2019-03-20T03:17:19.668Z,-0.50
2019-03-20T03:19:48.397Z,-0.60
2019-03-20T03:22:17.071Z,-0.50
2019-03-20T03:24:45.793Z,-0.60
2019-03-20T03:27:14.450Z,-0.60
2019-03-20T03:29:43.405Z,-0.60
2019-03-20T03:32:12.059Z,-0.60
2019-03-20T03:34:40.697Z,-0.60
2019-03-20T03:37:09.457Z,-0.70
2019-03-20T03:39:38.441Z,-0.70
2019-03-20T03:42:07.168Z,-0.60
2019-03-20T03:44:36.300Z,-0.70
2019-03-20T03:47:05.303Z,-0.70
2019-03-20T03:49:33.950Z,-0.70
2019-03-20T03:52:02.621Z,-0.70
2019-03-20T03:54:31.567Z,-0.70
2019-03-20T03:57:00.696Z,-0.70
2019-03-20T03:59:29.658Z,-0.80
2019-03-20T04:01:58.335Z,-0.80
2019-03-20T04:04:26.972Z,-0.80
2019-03-20T04:06:55.645Z,-0.80
2019-03-20T04:09:24.567Z,-0.80
2019-03-20T04:11:53.257Z,-0.80
2019-03-20T04:14:21.924Z,-0.90
2019-03-20T04:16:50.861Z,-0.90
2019-03-20T04:19:19.518Z,-0.90
2019-03-20T04:21:48.174Z,-0.80
2019-03-20T04:24:16.842Z,-0.80
2019-03-20T04:26:45.598Z,-0.80
2019-03-20T04:29:14.249Z,-0.80
2019-03-20T04:31:42.931Z,-0.90
2019-03-20T04:34:11.589Z,-0.90
2019-03-20T04:36:47.537Z,-0.90
2019-03-20T04:39:10.888Z,-0.80
2019-03-20T04:41:39.928Z,-0.80
2019-03-20T04:44:08.996Z,-0.70
2019-03-20T04:46:37.983Z,-0.70
2019-03-20T04:49:06.628Z,-0.70
2019-03-20T04:51:35.543Z,-0.70
2019-03-20T04:54:04.280Z,-0.80
2019-03-20T04:56:33.300Z,-0.80
2019-03-20T04:59:02.270Z,-0.80
2019-03-20T05:01:30.913Z,-0.80
2019-03-20T05:03:59.864Z,-0.80
2019-03-20T05:06:28.513Z,-0.80
2019-03-20T05:08:57.321Z,-0.80
2019-03-20T05:11:26.382Z,-0.80
2019-03-20T05:13:55.166Z,-0.70
2019-03-20T05:16:23.848Z,-0.70
2019-03-20T05:18:52.808Z,-0.70
2019-03-20T05:21:21.487Z,-0.70
2019-03-20T05:23:50.238Z,-0.70
2019-03-20T05:26:18.892Z,-0.70
2019-03-20T05:28:47.562Z,-0.60
2019-03-20T05:31:16.806Z,-0.60
2019-03-20T05:33:45.784Z,-0.50
2019-03-20T05:36:14.570Z,-0.10
2019-03-20T05:38:43.238Z,0.50
2019-03-20T05:41:11.895Z,1.10
2019-03-20T05:43:40.593Z,1.80
2019-03-20T05:46:09.238Z,2.30
2019-03-20T05:48:41.386Z,2.80
2019-03-20T05:51:15.411Z,3.20
2019-03-20T05:53:44.823Z,3.70
2019-03-20T05:56:13.761Z,3.90
2019-03-20T05:58:43.589Z,4.10
2019-03-20T06:01:13.676Z,4.20
2019-03-20T06:03:42.821Z,4.60
2019-03-20T06:06:11.836Z,4.70
2019-03-20T06:08:41.708Z,4.80
2019-03-20T06:11:19.504Z,5.00
2019-03-20T06:13:48.959Z,5.20
2019-03-20T06:16:18.495Z,5.50
2019-03-20T06:18:49.521Z,5.70
2019-03-20T06:21:18.031Z,5.90
2019-03-20T06:23:47.590Z,6.00
2019-03-20T06:26:16.816Z,6.20
2019-03-20T06:28:45.761Z,6.40
2019-03-20T06:31:18.958Z,6.50
2019-03-20T06:33:50.489Z,6.80
2019-03-20T06:36:22.707Z,6.80
2019-03-20T06:38:51.915Z,6.80
2019-03-20T06:41:22.726Z,7.10
2019-03-20T06:43:51.455Z,7.60
2019-03-20T06:46:20.479Z,7.70
2019-03-20T06:48:49.430Z,7.80
2019-03-20T06:51:18.083Z,7.80
2019-03-20T06:53:46.765Z,8.00
2019-03-20T06:56:15.735Z,8.50
2019-03-20T06:58:44.458Z,8.30
2019-03-20T07:01:24.346Z,8.30
2019-03-20T07:04:34.256Z,8.80
2019-03-20T07:07:15.276Z,8.90
2019-03-20T07:10:06.273Z,9.50
2019-03-20T07:12:35.332Z,10.00
2019-03-20T07:15:04.229Z,10.10
2019-03-20T07:17:32.885Z,10.40
2019-03-20T07:20:01.593Z,10.50
2019-03-20T07:22:30.612Z,10.90
2019-03-20T07:25:00.340Z,11.30
2019-03-20T07:27:30.719Z,11.40
2019-03-20T07:30:04.207Z,11.30
2019-03-20T07:32:38.549Z,11.60
2019-03-20T07:35:08.349Z,11.80
2019-03-20T07:37:37.761Z,12.00
2019-03-20T07:40:06.678Z,12.50
2019-03-20T07:42:35.335Z,12.70
2019-03-20T07:45:05.629Z,13.10
2019-03-20T07:47:38.022Z,13.50
2019-03-20T07:50:09.825Z,13.50
2019-03-20T07:52:41.340Z,13.80
2019-03-20T07:55:11.272Z,14.40
2019-03-20T07:57:40.649Z,14.50
2019-03-20T08:00:15.067Z,14.60
2019-03-20T08:02:44.577Z,14.30
2019-03-20T08:05:13.814Z,14.20
2019-03-20T08:07:44.760Z,14.10
2019-03-20T08:10:15.610Z,14.00
2019-03-20T08:12:46.561Z,14.00
2019-03-20T08:15:16.041Z,14.00
2019-03-20T08:17:47.375Z,14.00
2019-03-20T08:20:16.135Z,14.60
2019-03-20T08:22:44.866Z,14.70
2019-03-20T08:25:13.723Z,14.90
2019-03-20T08:27:42.434Z,14.90
2019-03-20T08:30:13.905Z,15.30
2019-03-20T08:32:43.276Z,15.60
2019-03-20T08:35:12.066Z,15.70
2019-03-20T08:37:40.795Z,15.70
2019-03-20T08:40:10.554Z,15.80
2019-03-20T08:42:39.227Z,16.10
2019-03-20T08:45:09.357Z,16.10
2019-03-20T08:47:38.029Z,15.20
2019-03-20T08:50:10.932Z,15.30
2019-03-20T08:52:39.940Z,15.00
2019-03-20T08:55:08.901Z,15.00
2019-03-20T08:57:56.804Z,14.80
2019-03-20T09:00:25.795Z,15.30
2019-03-20T09:02:54.783Z,15.60
2019-03-20T09:05:23.742Z,15.70
2019-03-20T09:07:53.260Z,15.30
2019-03-20T09:10:22.241Z,15.60
2019-03-20T09:12:50.931Z,15.70
2019-03-20T09:15:20.455Z,16.20
2019-03-20T09:17:49.315Z,16.20
2019-03-20T09:20:17.982Z,15.30
2019-03-20T09:22:46.619Z,15.50
2019-03-20T09:25:16.276Z,15.00
2019-03-20T09:27:45.055Z,15.10
2019-03-20T09:30:16.442Z,15.70
2019-03-20T09:32:45.328Z,15.40
2019-03-20T09:35:14.460Z,15.90
2019-03-20T09:37:51.700Z,16.30
2019-03-20T09:40:15.199Z,16.40
2019-03-20T09:42:44.184Z,16.50
2019-03-20T09:45:14.713Z,15.90
2019-03-20T09:47:43.508Z,16.60
2019-03-20T09:50:13.896Z,17.00
2019-03-20T09:52:42.659Z,16.90
2019-03-20T09:55:11.544Z,17.00
2019-03-20T09:57:40.192Z,17.30
2019-03-20T10:00:17.584Z,17.20
2019-03-20T10:02:46.580Z,17.20
2019-03-20T10:05:15.238Z,17.00
2019-03-20T10:07:43.975Z,16.50
2019-03-20T10:10:17.553Z,16.20
2019-03-20T10:12:46.221Z,16.30
2019-03-20T10:15:15.883Z,15.60
2019-03-20T10:17:44.869Z,15.80
2019-03-20T10:20:15.548Z,15.10
2019-03-20T10:22:44.291Z,15.10
2019-03-20T10:25:13.128Z,15.40
2019-03-20T10:27:42.065Z,15.20
2019-03-20T10:30:17.663Z,15.60
2019-03-20T10:32:46.344Z,16.40
2019-03-20T10:35:15.071Z,16.50
2019-03-20T10:37:43.809Z,16.60
2019-03-20T10:40:14.725Z,16.30
2019-03-20T10:42:43.707Z,16.40
2019-03-20T10:45:12.977Z,16.00
2019-03-20T10:47:42.048Z,15.60
2019-03-20T10:50:17.644Z,15.70
2019-03-20T10:52:46.371Z,15.60
2019-03-20T10:55:15.319Z,15.90
2019-03-20T10:57:44.056Z,16.10
2019-03-20T11:00:17.979Z,16.20
2019-03-20T11:02:46.844Z,16.10
2019-03-20T11:05:16.451Z,15.80
2019-03-20T11:07:45.249Z,15.80
2019-03-20T11:10:16.512Z,16.00
2019-03-20T11:12:51.431Z,15.70
2019-03-20T11:15:20.179Z,15.50
2019-03-20T11:17:49.019Z,15.70
2019-03-20T11:20:17.867Z,15.90
2019-03-20T11:22:46.683Z,15.90
2019-03-20T11:25:16.644Z,16.10
2019-03-20T11:27:45.768Z,16.00
2019-03-20T11:30:21.926Z,15.60
2019-03-20T11:32:50.683Z,15.80
2019-03-20T11:35:19.719Z,15.50
2019-03-20T11:37:48.494Z,15.20
2019-03-20T11:40:19.962Z,15.20
2019-03-20T11:42:48.675Z,15.80
2019-03-20T11:45:17.749Z,15.70
2019-03-20T11:47:46.429Z,15.20
2019-03-20T11:50:17.706Z,14.60
2019-03-20T11:52:46.411Z,14.50
2019-03-20T11:55:15.354Z,14.90
2019-03-20T11:57:44.549Z,14.80
2019-03-20T12:00:15.212Z,14.30
2019-03-20T12:02:43.903Z,14.50
2019-03-20T12:05:13.078Z,14.70
2019-03-20T12:07:41.864Z,14.70
2019-03-20T12:10:13.803Z,14.80
2019-03-20T12:12:42.561Z,14.50
2019-03-20T12:15:11.404Z,14.30
2019-03-20T12:17:40.100Z,14.40
2019-03-20T12:20:12.027Z,14.30
2019-03-20T12:22:41.139Z,14.10
2019-03-20T12:25:12.395Z,14.00
2019-03-20T12:27:41.086Z,14.00
2019-03-20T12:30:12.317Z,14.00
2019-03-20T12:32:40.966Z,13.90
2019-03-20T12:35:11.232Z,13.60
2019-03-20T12:37:39.945Z,13.40
2019-03-20T12:40:13.495Z,13.40
2019-03-20T12:42:42.514Z,13.20
2019-03-20T12:45:13.196Z,13.40
2019-03-20T12:47:41.870Z,13.80
2019-03-20T12:50:11.197Z,13.80
2019-03-20T12:52:41.216Z,14.20
2019-03-20T12:55:11.579Z,14.30
2019-03-20T12:57:40.244Z,14.10
2019-03-20T13:00:12.551Z,14.10
2019-03-20T13:02:41.437Z,14.00
2019-03-20T13:05:10.375Z,14.20
2019-03-20T13:07:39.411Z,13.90
2019-03-20T13:10:09.621Z,14.20
2019-03-20T13:12:38.798Z,14.10
2019-03-20T13:15:09.229Z,14.40
2019-03-20T13:17:37.915Z,14.40
2019-03-20T13:20:07.272Z,14.30
2019-03-20T13:22:35.928Z,14.20
2019-03-20T13:25:05.640Z,14.10
2019-03-20T13:27:34.321Z,14.10
2019-03-20T13:30:03.151Z,14.30
2019-03-20T13:32:32.104Z,14.00
2019-03-20T13:35:00.777Z,13.80
2019-03-20T13:37:29.472Z,13.80
2019-03-20T13:39:58.175Z,14.00
2019-03-20T13:42:27.275Z,13.90
2019-03-20T13:44:56.243Z,13.60
2019-03-20T13:47:28.022Z,13.70
2019-03-20T13:49:56.690Z,13.70
2019-03-20T13:52:25.626Z,14.00
2019-03-20T13:54:54.583Z,14.00
2019-03-20T13:57:23.230Z,13.80
2019-03-20T13:59:52.273Z,13.70
2019-03-20T14:02:21.064Z,13.30
2019-03-20T14:04:50.054Z,13.20
2019-03-20T14:07:18.714Z,13.40
2019-03-20T14:09:47.830Z,13.60
2019-03-20T14:12:16.499Z,13.80
2019-03-20T14:14:45.183Z,13.70
2019-03-20T14:17:14.105Z,13.40
2019-03-20T14:19:43.405Z,13.30
2019-03-20T14:22:12.365Z,13.00
2019-03-20T14:24:46.763Z,13.00
2019-03-20T14:27:17.844Z,12.80
2019-03-20T14:29:46.855Z,12.90
2019-03-20T14:32:15.864Z,13.00
2019-03-20T14:34:47.426Z,13.10
2019-03-20T14:37:18.765Z,13.10
2019-03-20T14:39:50.937Z,12.90
2019-03-20T14:42:24.720Z,12.90
2019-03-20T14:44:57.668Z,13.00
2019-03-20T14:47:27.938Z,13.10
2019-03-20T14:50:06.866Z,13.20
2019-03-20T14:52:38.130Z,13.20
2019-03-20T14:55:12.897Z,13.10
2019-03-20T14:57:41.589Z,12.80
2019-03-20T15:00:19.229Z,12.80
2019-03-20T15:02:48.242Z,12.80
2019-03-20T15:05:17.095Z,13.00
2019-03-20T15:07:45.765Z,13.10
2019-03-20T15:10:16.194Z,13.00
2019-03-20T15:12:44.958Z,12.80
2019-03-20T15:15:25.991Z,12.80
2019-03-20T15:17:54.923Z,12.80
2019-03-20T15:20:23.667Z,12.90
2019-03-20T15:22:52.345Z,13.00
2019-03-20T15:25:21.032Z,13.10
2019-03-20T15:27:49.754Z,13.10
2019-03-20T15:30:18.611Z,13.10
2019-03-20T15:32:47.323Z,13.20
2019-03-20T15:35:17.521Z,13.10
2019-03-20T15:37:46.204Z,13.10
2019-03-20T15:40:15.826Z,13.00
2019-03-20T15:42:44.921Z,13.00
2019-03-20T15:45:14.767Z,13.00
2019-03-20T15:47:43.536Z,13.00
2019-03-20T15:50:14.051Z,13.10
2019-03-20T15:52:42.843Z,13.10
2019-03-20T15:55:17.701Z,13.10
2019-03-20T15:57:46.626Z,13.10
2019-03-20T16:00:16.994Z,13.00
2019-03-20T16:02:46.154Z,12.90
2019-03-20T16:05:14.865Z,13.00
2019-03-20T16:07:44.003Z,12.90
2019-03-20T16:10:15.678Z,12.80
2019-03-20T16:12:44.474Z,12.70
2019-03-20T16:15:14.836Z,12.60
2019-03-20T16:17:43.828Z,12.70
2019-03-20T16:20:12.665Z,12.60
2019-03-20T16:22:41.930Z,12.60
2019-03-20T16:25:11.388Z,12.60
2019-03-20T16:27:40.068Z,12.50
2019-03-20T16:30:11.962Z,12.50
2019-03-20T16:32:40.921Z,12.50
2019-03-20T16:35:09.846Z,12.50
2019-03-20T16:37:38.550Z,12.50
2019-03-20T16:40:09.897Z,12.50
2019-03-20T16:42:38.868Z,12.40
2019-03-20T16:45:09.600Z,12.40
2019-03-20T16:47:38.278Z,12.40
2019-03-20T16:50:07.710Z,12.30
2019-03-20T16:52:36.375Z,12.30
2019-03-20T16:55:06.160Z,12.20
2019-03-20T16:57:34.851Z,12.20
2019-03-20T17:00:04.493Z,12.20
2019-03-20T17:02:33.240Z,12.10
2019-03-20T17:05:02.293Z,12.20
2019-03-20T17:07:31.235Z,12.10
2019-03-20T17:09:59.922Z,12.10
2019-03-20T17:12:28.604Z,12.00
2019-03-20T17:14:57.521Z,12.00
2019-03-20T17:17:26.544Z,12.00
2019-03-20T17:19:55.538Z,12.00
2019-03-20T17:22:24.200Z,12.00
2019-03-20T17:24:52.857Z,11.90
2019-03-20T17:27:21.566Z,12.00
2019-03-20T17:29:50.222Z,11.90
2019-03-20T17:32:18.913Z,11.90
2019-03-20T17:34:47.560Z,11.90
2019-03-20T17:37:16.224Z,11.90
2019-03-20T17:39:44.903Z,11.90
2019-03-20T17:42:13.567Z,11.80
2019-03-20T17:44:42.220Z,11.90
2019-03-20T17:47:10.928Z,11.90
2019-03-20T17:49:39.600Z,11.80
2019-03-20T17:52:08.250Z,11.80
2019-03-20T17:54:37.259Z,11.80
2019-03-20T17:57:05.988Z,11.80
2019-03-20T17:59:34.937Z,11.80
2019-03-20T18:02:03.666Z,11.80
2019-03-20T18:04:32.689Z,11.80
2019-03-20T18:07:01.729Z,11.80
2019-03-20T18:09:33.631Z,11.80
2019-03-20T18:12:02.687Z,11.80
2019-03-20T18:14:31.914Z,11.80
2019-03-20T18:17:00.987Z,11.80
2019-03-20T18:19:29.907Z,11.80
2019-03-20T18:21:58.591Z,11.70
2019-03-20T18:24:27.308Z,11.70
2019-03-20T18:26:56.251Z,11.70
2019-03-20T18:29:24.958Z,11.70
2019-03-20T18:31:53.694Z,11.70
2019-03-20T18:34:22.378Z,11.70
2019-03-20T18:36:51.114Z,11.70
2019-03-20T18:39:20.721Z,11.70
2019-03-20T18:41:57.456Z,11.70
2019-03-20T18:44:19.957Z,11.70
2019-03-20T18:46:48.604Z,11.70
2019-03-20T18:49:17.699Z,11.60
2019-03-20T18:51:46.365Z,11.50
2019-03-20T18:54:15.337Z,11.50
2019-03-20T18:56:43.979Z,11.40
2019-03-20T18:59:12.645Z,11.40
2019-03-20T19:01:41.835Z,11.40
2019-03-20T19:04:10.763Z,11.30
2019-03-20T19:06:39.511Z,11.20
2019-03-20T19:09:09.539Z,11.10
2019-03-20T19:11:38.631Z,11.10
2019-03-20T19:14:07.382Z,11.10
2019-03-20T19:16:36.061Z,11.00
2019-03-20T19:19:05.150Z,11.00
2019-03-20T19:21:33.886Z,11.10
2019-03-20T19:24:03.288Z,11.00
2019-03-20T19:26:31.955Z,11.00
2019-03-20T19:29:00.634Z,11.00
2019-03-20T19:31:29.442Z,11.00
2019-03-20T19:34:00.074Z,11.00
2019-03-20T19:36:29.186Z,11.00
2019-03-20T19:38:57.913Z,11.00
2019-03-20T19:41:26.594Z,11.00
2019-03-20T19:43:55.526Z,11.00
2019-03-20T19:46:24.642Z,11.10
2019-03-20T19:48:58.575Z,11.00
2019-03-20T19:51:27.307Z,11.00
2019-03-20T19:53:56.029Z,11.00
2019-03-20T19:56:24.790Z,11.00
2019-03-20T19:58:53.547Z,11.00
2019-03-20T20:01:22.268Z,11.10
2019-03-20T20:03:50.979Z,11.10
2019-03-20T20:06:19.636Z,11.10
2019-03-20T20:08:48.661Z,11.10
2019-03-20T20:11:17.389Z,11.10
2019-03-20T20:13:46.349Z,11.10
2019-03-20T20:16:15.125Z,11.10
2019-03-20T20:18:43.975Z,11.10
2019-03-20T20:21:13.238Z,11.10
2019-03-20T20:23:42.028Z,11.10
2019-03-20T20:26:10.805Z,11.10
2019-03-20T20:28:39.524Z,11.10
2019-03-20T20:31:08.230Z,11.10
2019-03-20T20:33:38.262Z,11.10
2019-03-20T20:36:07.246Z,11.20
2019-03-20T20:38:35.992Z,11.10
2019-03-20T20:41:04.761Z,11.10
2019-03-20T20:43:33.469Z,11.10
2019-03-20T20:46:02.108Z,11.10
2019-03-20T20:48:30.812Z,11.00
2019-03-20T20:50:59.815Z,11.10
2019-03-20T20:53:28.511Z,11.10
2019-03-20T20:55:57.496Z,11.00
2019-03-20T20:58:26.226Z,11.00
2019-03-20T21:00:55.037Z,11.00
2019-03-20T21:03:24.066Z,11.00
2019-03-20T21:05:52.803Z,11.00
2019-03-20T21:08:21.546Z,11.00
2019-03-20T21:10:50.289Z,10.90
2019-03-20T21:13:19.487Z,10.90
2019-03-20T21:15:51.053Z,10.90
2019-03-20T21:19:17.098Z,10.90
2019-03-20T21:22:19.970Z,10.90
2019-03-20T21:24:49.558Z,10.90
2019-03-20T21:28:03.261Z,10.90
2019-03-20T21:30:52.714Z,10.90
2019-03-20T21:34:15.120Z,10.80
2019-03-20T21:37:20.582Z,10.80
2019-03-20T21:39:49.986Z,10.80
2019-03-20T21:43:06.802Z,10.80
2019-03-20T21:46:14.604Z,10.80
2019-03-20T21:48:44.210Z,10.80
2019-03-20T21:51:11.658Z,10.70
2019-03-20T21:56:40.632Z,10.70
2019-03-20T21:59:38.694Z,10.70
2019-03-20T22:02:43.029Z,10.70
2019-03-20T22:05:23.289Z,10.60
2019-03-20T22:07:51.516Z,10.60
2019-03-20T22:10:56.522Z,10.60
2019-03-20T22:13:39.222Z,10.60
2019-03-20T22:16:51.151Z,10.60
2019-03-20T22:19:36.029Z,10.50
2019-03-20T22:22:21.898Z,10.50
2019-03-20T22:25:20.268Z,10.50
2019-03-20T22:28:00.591Z,10.50
2019-03-20T22:30:29.800Z,10.50
2019-03-20T22:33:33.496Z,10.40
2019-03-20T22:36:19.293Z,10.40
2019-03-20T22:39:44.555Z,10.30
2019-03-20T22:42:21.483Z,10.20
2019-03-20T22:45:19.655Z,10.20
2019-03-20T22:48:17.159Z,10.10
2019-03-20T22:51:05.043Z,10.10
2019-03-20T22:54:29.148Z,10.10
2019-03-20T22:57:20.444Z,10.10
2019-03-20T22:59:49.655Z,10.00
2019-03-20T23:02:27.014Z,10.00
2019-03-20T23:04:58.953Z,10.00
2019-03-20T23:07:28.959Z,9.90
2019-03-20T23:09:58.292Z,9.90
2019-03-20T23:12:27.892Z,9.90
2019-03-20T23:14:57.499Z,9.80
2019-03-20T23:17:26.741Z,9.80
2019-03-20T23:19:57.051Z,9.80
2019-03-20T23:22:26.336Z,9.80
2019-03-20T23:24:55.910Z,9.80
2019-03-20T23:27:29.108Z,9.80
2019-03-20T23:29:58.480Z,9.80
2019-03-20T23:32:27.976Z,9.80
2019-03-20T23:34:57.279Z,9.80
2019-03-20T23:37:26.509Z,9.80
2019-03-20T23:39:55.772Z,9.80
2019-03-20T23:42:26.175Z,9.80
2019-03-20T23:44:55.428Z,9.80
2019-03-20T23:47:30.801Z,9.80
2019-03-20T23:50:00.699Z,9.80
2019-03-20T23:52:30.116Z,9.80
2019-03-20T23:54:59.619Z,9.80
